TimeMDT,TemperatureF,Dew PointF,Humidity,Sea Level PressureIn,VisibilityMPH,Wind Direction,Wind SpeedMPH,Gust SpeedMPH,PrecipitationIn,Events,Conditions,WindDirDegrees,DateUTC
12:53 AM,75.0,48.9,40,30.02,10.0,East,11.5,-,N/A,,Clear,80,2013-08-30 06:53:00
1:53 AM,73.0,48.9,42,30.02,10.0,East,8.1,-,N/A,,Clear,100,2013-08-30 07:53:00
2:53 AM,69.1,46.0,44,30.02,10.0,ESE,3.5,-,N/A,,Clear,120,2013-08-30 08:53:00
3:53 AM,66.9,46.9,49,30.02,10.0,East,4.6,-,N/A,,Clear,80,2013-08-30 09:53:00
4:53 AM,64.9,46.0,50,30.02,10.0,ESE,6.9,-,N/A,,Clear,120,2013-08-30 10:53:00
5:53 AM,64.0,46.0,52,30.03,10.0,ESE,4.6,-,N/A,,Clear,110,2013-08-30 11:53:00
6:53 AM,66.9,48.9,52,30.04,10.0,NE,8.1,-,N/A,,Clear,50,2013-08-30 12:53:00
7:53 AM,66.9,50.0,54,30.06,10.0,NE,6.9,-,N/A,,Clear,50,2013-08-30 13:53:00
8:53 AM,69.1,48.9,49,30.08,10.0,East,6.9,-,N/A,,Clear,80,2013-08-30 14:53:00
9:53 AM,71.1,50.0,47,30.08,10.0,ENE,4.6,-,N/A,,Clear,70,2013-08-30 15:53:00
10:53 AM,73.9,48.0,40,30.07,10.0,Calm,Calm,-,N/A,,Scattered Clouds,0,2013-08-30 16:53:00
11:53 AM,79.0,46.9,32,30.04,10.0,ENE,4.6,-,N/A,,Clear,60,2013-08-30 17:53:00
12:53 PM,82.9,46.9,28,30.00,10.0,NE,5.8,-,N/A,,Clear,50,2013-08-30 18:53:00
1:53 PM,84.0,46.9,27,29.96,10.0,WSW,4.6,-,N/A,,Clear,240,2013-08-30 19:53:00
2:53 PM,82.9,48.0,29,29.95,10.0,SSW,16.1,-,0.00,Rain-Thunderstorm,Light Rain,210,2013-08-30 20:53:00
3:50 PM,77.0,50.0,39,30.18,10.0,SSW,18.4,-,0.00,Thunderstorm,Mostly Cloudy,210,2013-08-30 21:50:00
3:53 PM,77.0,51.1,40,29.97,10.0,SSW,18.4,-,0.00,Thunderstorm,Mostly Cloudy,200,2013-08-30 21:53:00
4:11 PM,75.2,51.8,44,30.20,10.0,Variable,3.5,-,0.00,Rain,Light Rain,0,2013-08-30 22:11:00
4:53 PM,84.0,44.1,25,29.96,10.0,East,4.6,-,0.00,,Scattered Clouds,90,2013-08-30 22:53:00
5:23 PM,80.6,46.4,30,30.18,10.0,South,11.5,-,N/A,,Mostly Cloudy,190,2013-08-30 23:23:00
5:53 PM,78.1,48.9,36,29.98,10.0,South,18.4,-,N/A,,Clear,180,2013-08-30 23:53:00
6:53 PM,80.1,50.0,35,29.96,10.0,ENE,4.6,-,N/A,,Clear,70,2013-08-31 00:53:00
7:53 PM,77.0,48.0,36,29.99,10.0,SE,19.6,-,N/A,,Clear,130,2013-08-31 01:53:00
8:53 PM,75.0,48.9,40,30.00,10.0,East,8.1,-,N/A,,Clear,80,2013-08-31 02:53:00
9:53 PM,72.0,48.9,44,30.01,10.0,NE,5.8,-,N/A,,Clear,50,2013-08-31 03:53:00
10:53 PM,71.1,48.9,45,30.02,10.0,South,5.8,-,N/A,,Mostly Cloudy,170,2013-08-31 04:53:00
11:53 PM,68.0,50.0,52,30.02,10.0,SE,5.8,-,N/A,,Clear,130,2013-08-31 05:53:00